createdAt,value
2018-05-15T00:01:22.129Z,94860.64
2018-05-15T00:03:48.450Z,94851.33
2018-05-15T00:06:14.864Z,94855.27
2018-05-15T00:08:41.209Z,94852.39
2018-05-15T00:11:07.610Z,94849.05
2018-05-15T00:13:33.925Z,94829.20
2018-05-15T00:16:00.262Z,94849.66
2018-05-15T00:18:26.572Z,94845.98
2018-05-15T00:20:52.900Z,94825.27
2018-05-15T00:23:19.276Z,94836.61
2018-05-15T00:25:45.667Z,94835.23
2018-05-15T00:28:11.993Z,94825.80
2018-05-15T00:30:45.376Z,94828.03
2018-05-15T00:33:11.863Z,94805.91
2018-05-15T00:35:38.192Z,94794.77
2018-05-15T00:38:04.541Z,94794.84
2018-05-15T00:51:12.296Z,94803.92
2018-05-15T00:53:38.707Z,94794.77
2018-05-15T00:56:05.102Z,94806.88
2018-05-15T00:58:31.501Z,94798.66
2018-05-15T01:03:40.677Z,94781.66
2018-05-15T01:06:07.674Z,94791.87
2018-05-15T01:08:34.045Z,94798.91
2018-05-15T01:11:00.369Z,94799.56
2018-05-15T01:13:26.704Z,94787.27
2018-05-15T01:15:53.049Z,94779.89
2018-05-15T01:18:19.458Z,94777.03
2018-05-15T01:20:45.783Z,94787.64
2018-05-15T01:23:20.109Z,94799.20
2018-05-15T01:25:46.476Z,94799.25
2018-05-15T01:28:13.808Z,94798.10
2018-05-15T01:30:40.137Z,94804.11
2018-05-15T01:33:06.565Z,94801.04
2018-05-15T01:35:33.128Z,94784.22
2018-05-15T01:37:59.703Z,94794.03
2018-05-15T01:40:26.192Z,94784.14
2018-05-15T01:42:52.527Z,94768.14
2018-05-15T01:45:18.886Z,94788.60
2018-05-15T01:47:45.237Z,94785.20
2018-05-15T01:50:11.697Z,94779.07
2018-05-15T01:52:38.244Z,94791.34
2018-05-15T01:55:04.638Z,94782.52
2018-05-15T01:57:30.997Z,94763.72
2018-05-15T01:59:57.357Z,94795.86
2018-05-15T02:02:23.869Z,94792.08
2018-05-15T02:04:50.299Z,94800.76
2018-05-15T02:07:16.664Z,94791.45
2018-05-15T02:09:43.095Z,94804.08
2018-05-15T02:12:09.479Z,94799.50
2018-05-15T02:14:36.056Z,94794.70
2018-05-15T02:17:02.802Z,94770.48
2018-05-15T02:19:29.199Z,94794.16
2018-05-15T02:21:55.557Z,94790.48
2018-05-15T02:24:21.930Z,94782.08
2018-05-15T02:26:48.262Z,94792.95
2018-05-15T02:29:14.609Z,94788.56
2018-05-15T02:31:40.997Z,94792.35
2018-05-15T02:34:07.625Z,94785.13
2018-05-15T02:36:33.958Z,94783.37
2018-05-15T02:39:00.365Z,94780.05
2018-05-15T02:41:26.715Z,94783.17
2018-05-15T02:43:53.069Z,94776.80
2018-05-15T02:46:19.624Z,94782.11
2018-05-15T02:48:46.046Z,94778.02
2018-05-15T02:51:12.382Z,94780.59
2018-05-15T02:53:38.769Z,94783.50
2018-05-15T02:56:05.101Z,94785.69
2018-05-15T02:58:31.689Z,94789.03
2018-05-15T03:00:58.071Z,94795.05
2018-05-15T03:03:24.606Z,94796.86
2018-05-15T03:05:51.020Z,94795.29
2018-05-15T03:10:50.012Z,94806.92
2018-05-15T03:13:16.383Z,94805.30
2018-05-15T03:15:43.157Z,94808.04
2018-05-15T03:18:09.538Z,94800.36
2018-05-15T03:20:36.203Z,94801.77
2018-05-15T03:23:02.660Z,94796.77
2018-05-15T03:25:29.012Z,94794.87
2018-05-15T03:27:55.335Z,94787.27
2018-05-15T03:30:22.080Z,94794.13
2018-05-15T03:32:48.479Z,94794.98
2018-05-15T03:35:14.806Z,94797.31
2018-05-15T03:37:41.243Z,94796.61
2018-05-15T03:40:07.827Z,94793.29
2018-05-15T03:42:34.200Z,94794.00
2018-05-15T03:45:00.531Z,94799.48
2018-05-15T03:47:26.911Z,94797.48
2018-05-15T03:49:53.288Z,94812.06
2018-05-15T03:52:19.677Z,94793.75
2018-05-15T03:54:46.089Z,94810.11
2018-05-15T03:57:12.420Z,94804.91
2018-05-15T03:59:38.972Z,94799.98
2018-05-15T04:02:05.603Z,94800.27
2018-05-15T04:04:31.968Z,94788.89
2018-05-15T04:06:58.294Z,94786.22
2018-05-15T04:09:24.713Z,94799.88
2018-05-15T04:11:51.173Z,94777.98
2018-05-15T04:14:17.778Z,94781.22
2018-05-15T04:16:44.144Z,94794.53
2018-05-15T04:19:10.534Z,94796.20
2018-05-15T04:21:37.039Z,94803.62
2018-05-15T04:24:03.445Z,94800.94
2018-05-15T04:26:30.623Z,94807.38
2018-05-15T04:28:57.132Z,94804.38
2018-05-15T04:31:23.522Z,94816.61
2018-05-15T04:33:49.868Z,94810.78
2018-05-15T04:36:16.245Z,94787.89
2018-05-15T04:38:42.739Z,94805.42
2018-05-15T04:41:09.190Z,94830.70
2018-05-15T04:43:35.659Z,94831.16
2018-05-15T04:46:02.040Z,94841.41
2018-05-15T04:48:28.500Z,94830.01
2018-05-15T04:50:54.951Z,94848.84
2018-05-15T04:53:21.318Z,94837.91
2018-05-15T04:55:47.729Z,94828.93
2018-05-15T04:58:14.524Z,94829.34
2018-05-15T05:00:41.236Z,94853.27
2018-05-15T05:03:08.027Z,94852.61
2018-05-15T05:05:34.448Z,94851.84
2018-05-15T05:08:00.781Z,94843.58
2018-05-15T05:10:27.113Z,94847.91
2018-05-15T05:12:53.616Z,94854.78
2018-05-15T05:15:20.018Z,94847.41
2018-05-15T05:17:47.711Z,94839.34
2018-05-15T05:20:14.124Z,94860.66
2018-05-15T05:22:40.597Z,94848.03
2018-05-15T05:25:07.371Z,94841.99
2018-05-15T05:27:33.784Z,94829.92
2018-05-15T05:30:00.556Z,94844.61
2018-05-15T05:32:27.050Z,94842.14
2018-05-15T05:34:53.818Z,94837.75
2018-05-15T05:37:20.206Z,94831.16
2018-05-15T05:39:46.828Z,94837.75
2018-05-15T05:42:13.319Z,94841.69
2018-05-15T05:44:39.747Z,94838.38
2018-05-15T05:47:06.294Z,94829.28
2018-05-15T05:49:32.740Z,94842.32
2018-05-15T05:51:59.727Z,94832.13
2018-05-15T05:54:26.278Z,94838.02
2018-05-15T05:56:52.780Z,94843.09
2018-05-15T05:59:19.382Z,94828.84
2018-05-15T06:01:45.829Z,94829.52
2018-05-15T06:04:12.694Z,94825.08
2018-05-15T06:06:39.304Z,94832.97
2018-05-15T06:09:05.775Z,94825.45
2018-05-15T06:11:33.436Z,94825.74
2018-05-15T06:13:59.934Z,94834.55
2018-05-15T06:16:26.388Z,94813.27
2018-05-15T06:18:53.966Z,94829.80
2018-05-15T06:21:20.624Z,94825.74
2018-05-15T06:23:47.296Z,94836.52
2018-05-15T06:26:13.954Z,94827.42
2018-05-15T06:28:41.115Z,94830.94
2018-05-15T06:31:08.545Z,94831.97
2018-05-15T06:33:35.432Z,94827.04
2018-05-15T06:36:02.178Z,94832.12
2018-05-15T06:38:29.252Z,94809.50
2018-05-15T06:40:56.581Z,94827.92
2018-05-15T06:43:24.359Z,94834.31
2018-05-15T06:45:51.145Z,94832.12
2018-05-15T06:48:20.118Z,94847.72
2018-05-15T06:53:26.212Z,94825.84
2018-05-15T06:55:53.064Z,94821.97
2018-05-15T06:58:20.932Z,94826.60
2018-05-15T07:00:47.750Z,94821.27
2018-05-15T07:03:14.550Z,94826.37
2018-05-15T07:05:41.234Z,94828.27
2018-05-15T07:08:08.106Z,94820.35
2018-05-15T07:10:37.744Z,94813.64
2018-05-15T07:13:04.964Z,94808.70
2018-05-15T07:15:32.109Z,94828.06
2018-05-15T07:17:58.799Z,94811.49
2018-05-15T07:23:04.792Z,94799.81
2018-05-15T07:25:31.855Z,94805.73
2018-05-15T07:27:58.703Z,94811.05
2018-05-15T07:30:35.567Z,94799.11
2018-05-15T07:33:02.392Z,94798.53
2018-05-15T07:35:29.061Z,94808.64
2018-05-15T07:37:55.765Z,94807.31
2018-05-15T07:40:22.676Z,94796.72
2018-05-15T07:42:49.307Z,94807.47
2018-05-15T07:45:16.040Z,94788.42
2018-05-15T07:47:42.870Z,94802.85
2018-05-15T07:50:11.812Z,94793.99
2018-05-15T07:52:39.417Z,94793.06
2018-05-15T07:55:06.261Z,94793.46
2018-05-15T07:57:33.124Z,94793.44
2018-05-15T08:00:00.005Z,94795.80
2018-05-15T08:02:26.808Z,94779.95
2018-05-15T08:04:55.913Z,94798.42
2018-05-15T08:07:23.575Z,94782.42
2018-05-15T08:09:50.471Z,94784.12
2018-05-15T08:12:17.304Z,94788.84
2018-05-15T08:14:44.150Z,94800.39
2018-05-15T08:17:10.904Z,94792.31
2018-05-15T08:19:38.528Z,94799.92
2018-05-15T08:22:05.271Z,94785.09
2018-05-15T08:24:31.885Z,94798.62
2018-05-15T08:26:58.465Z,94795.56
2018-05-15T08:29:25.439Z,94786.45
2018-05-15T08:31:52.249Z,94785.28
2018-05-15T08:34:18.946Z,94795.23
2018-05-15T08:36:45.765Z,94775.52
2018-05-15T08:39:12.422Z,94795.43
2018-05-15T08:41:39.133Z,94780.81
2018-05-15T08:44:05.925Z,94787.54
2018-05-15T08:46:32.687Z,94795.23
2018-05-15T08:48:59.537Z,94789.72
2018-05-15T08:51:27.122Z,94795.56
2018-05-15T08:53:56.089Z,94790.32
2018-05-15T08:56:22.865Z,94794.42
2018-05-15T08:58:49.463Z,94797.62
2018-05-15T09:01:16.276Z,94790.55
2018-05-15T09:03:43.997Z,94806.38
2018-05-15T09:06:10.835Z,94801.14
2018-05-15T09:08:37.742Z,94789.18
2018-05-15T09:11:04.466Z,94787.28
2018-05-15T09:13:31.086Z,94787.41
2018-05-15T09:15:57.755Z,94797.73
2018-05-15T09:18:24.916Z,94785.23
2018-05-15T09:20:51.555Z,94806.05
2018-05-15T09:23:18.056Z,94790.27
2018-05-15T09:25:44.947Z,94798.50
2018-05-15T09:28:13.444Z,94792.86
2018-05-15T09:30:39.928Z,94811.06
2018-05-15T09:33:06.402Z,94817.88
2018-05-15T09:35:32.826Z,94815.27
2018-05-15T09:37:59.469Z,94815.14
2018-05-15T09:40:25.903Z,94817.33
2018-05-15T09:42:52.519Z,94815.10
2018-05-15T09:45:18.970Z,94802.30
2018-05-15T09:47:45.718Z,94815.70
2018-05-15T09:50:15.076Z,94797.95
2018-05-15T09:52:41.577Z,94794.56
2018-05-15T09:55:08.168Z,94803.14
2018-05-15T09:57:35.109Z,94804.70
2018-05-15T10:00:01.660Z,94793.66
2018-05-15T10:02:28.283Z,94798.97
2018-05-15T10:04:55.451Z,94781.98
2018-05-15T10:07:22.157Z,94799.57
2018-05-15T10:09:48.847Z,94798.11
2018-05-15T10:12:15.250Z,94792.70
2018-05-15T10:14:41.887Z,94804.55
2018-05-15T10:17:08.328Z,94795.03
2018-05-15T10:19:34.738Z,94778.30
2018-05-15T10:22:01.184Z,94767.13
2018-05-15T10:24:27.749Z,94778.37
2018-05-15T10:26:54.225Z,94794.61
2018-05-15T10:29:20.724Z,94774.90
2018-05-15T10:31:47.238Z,94770.14
2018-05-15T10:34:14.382Z,94781.83
2018-05-15T10:36:40.925Z,94771.84
2018-05-15T10:39:07.361Z,94779.52
2018-05-15T10:41:33.816Z,94773.67
2018-05-15T10:44:00.678Z,94769.98
2018-05-15T10:46:27.311Z,94756.11
2018-05-15T10:48:53.743Z,94768.81
2018-05-15T10:51:20.204Z,94750.05
2018-05-15T10:53:47.498Z,94762.91
2018-05-15T10:56:14.293Z,94735.10
2018-05-15T10:58:40.961Z,94733.72
2018-05-15T11:01:07.366Z,94764.20
2018-05-15T11:03:34.489Z,94748.07
2018-05-15T11:06:01.255Z,94756.16
2018-05-15T11:08:28.663Z,94739.85
2018-05-15T11:10:55.363Z,94738.68
2018-05-15T11:13:22.386Z,94749.44
2018-05-15T11:15:51.139Z,94755.77
2018-05-15T11:18:17.712Z,94739.66
2018-05-15T11:20:44.210Z,94767.05
2018-05-15T11:23:10.817Z,94757.20
2018-05-15T11:25:37.353Z,94761.66
2018-05-15T11:28:04.060Z,94761.27
2018-05-15T11:30:30.632Z,94756.23
2018-05-15T11:32:57.114Z,94763.45
2018-05-15T11:35:23.579Z,94772.06
2018-05-15T11:37:52.145Z,94763.92
2018-05-15T11:40:18.588Z,94768.53
2018-05-15T11:42:45.105Z,94764.84
2018-05-15T11:45:11.825Z,94746.64
2018-05-15T11:47:38.660Z,94737.14
2018-05-15T11:50:05.801Z,94753.44
2018-05-15T11:52:32.072Z,94761.34
2018-05-15T11:54:57.903Z,94764.52
2018-05-15T11:57:24.423Z,94762.34
2018-05-15T11:59:51.221Z,94750.86
2018-05-15T12:02:17.900Z,94749.95
2018-05-15T12:04:44.681Z,94751.84
2018-05-15T12:07:11.517Z,94756.10
2018-05-15T12:09:39.248Z,94754.33
2018-05-15T12:12:06.108Z,94747.84
2018-05-15T12:14:32.618Z,94745.19
2018-05-15T12:16:59.085Z,94744.97
2018-05-15T12:19:25.594Z,94737.08
2018-05-15T12:21:52.060Z,94732.31
2018-05-15T12:24:18.884Z,94734.16
2018-05-15T12:26:45.422Z,94739.98
2018-05-15T12:29:11.959Z,94736.52
2018-05-15T12:31:38.688Z,94723.14
2018-05-15T12:34:05.088Z,94723.23
2018-05-15T12:36:31.767Z,94713.46
2018-05-15T12:38:58.423Z,94717.40
2018-05-15T12:41:25.087Z,94700.03
2018-05-15T12:43:51.492Z,94693.78
2018-05-15T12:46:17.913Z,94712.73
2018-05-15T12:48:44.494Z,94689.11
2018-05-15T12:51:10.995Z,94677.80
2018-05-15T12:53:38.252Z,94702.39
2018-05-15T12:56:04.686Z,94706.97
2018-05-15T12:58:31.540Z,94700.50
2018-05-15T13:00:58.204Z,94696.21
2018-05-15T13:03:24.681Z,94686.44
2018-05-15T13:05:51.075Z,94694.60
2018-05-15T13:08:17.476Z,94688.86
2018-05-15T13:10:43.938Z,94701.66
2018-05-15T13:13:10.621Z,94693.78
2018-05-15T13:15:37.161Z,94701.48
2018-05-15T13:18:03.658Z,94695.95
2018-05-15T13:20:30.652Z,94688.08
2018-05-15T13:22:57.275Z,94683.98
2018-05-15T13:25:25.479Z,94675.02
2018-05-15T13:27:51.868Z,94663.70
2018-05-15T13:30:18.624Z,94662.41
2018-05-15T13:32:45.132Z,94660.95
2018-05-15T13:35:11.915Z,94642.89
2018-05-15T13:37:39.072Z,94647.72
2018-05-15T13:40:05.916Z,94643.84
2018-05-15T13:42:32.831Z,94668.69
2018-05-15T13:44:59.722Z,94654.12
2018-05-15T13:47:26.212Z,94656.30
2018-05-15T13:49:52.704Z,94654.18
2018-05-15T13:52:19.920Z,94674.70
2018-05-15T13:54:46.345Z,94681.27
2018-05-15T13:57:12.695Z,94687.16
2018-05-15T13:59:39.120Z,94696.77
2018-05-15T14:02:05.628Z,94690.56
2018-05-15T14:04:32.082Z,94709.83
2018-05-15T14:06:58.705Z,94705.91
2018-05-15T14:09:25.140Z,94731.50
2018-05-15T14:11:51.627Z,94720.92
2018-05-15T14:14:18.974Z,94716.03
2018-05-15T14:16:45.472Z,94736.84
2018-05-15T14:19:11.934Z,94731.44
2018-05-15T14:21:38.378Z,94736.13
2018-05-15T14:24:04.805Z,94764.28
2018-05-15T14:26:31.269Z,94776.24
2018-05-15T14:28:57.687Z,94781.89
2018-05-15T14:31:24.248Z,94797.59
2018-05-15T14:33:50.679Z,94793.25
2018-05-15T14:36:17.157Z,94818.41
2018-05-15T14:38:43.541Z,94807.06
2018-05-15T14:41:09.962Z,94816.06
2018-05-15T14:43:36.457Z,94813.31
2018-05-15T14:46:03.119Z,94802.78
2018-05-15T14:48:32.502Z,94767.29
2018-05-15T14:50:58.929Z,94773.00
2018-05-15T14:53:25.347Z,94768.42
2018-05-15T14:55:51.832Z,94755.17
2018-05-15T14:58:18.287Z,94774.16
2018-05-15T15:00:44.692Z,94774.75
2018-05-15T15:03:11.088Z,94783.61
2018-05-15T15:05:37.579Z,94738.23
2018-05-15T15:08:03.961Z,94763.34
2018-05-15T15:10:30.332Z,94722.56
2018-05-15T15:12:56.693Z,94745.59
2018-05-15T15:15:23.183Z,94755.59
2018-05-15T15:17:49.581Z,94749.66
2018-05-15T15:20:16.649Z,94738.41
2018-05-15T15:22:43.108Z,94738.39
2018-05-15T15:25:09.515Z,94714.13
2018-05-15T15:27:35.979Z,94740.03
2018-05-15T15:30:02.400Z,94721.27
2018-05-15T15:32:28.735Z,94723.24
2018-05-15T15:34:55.071Z,94739.08
2018-05-15T15:37:21.694Z,94744.30
2018-05-15T15:39:48.070Z,94742.68
2018-05-15T15:42:14.479Z,94741.59
2018-05-15T15:44:40.898Z,94730.30
2018-05-15T15:47:07.403Z,94735.34
2018-05-15T15:49:33.834Z,94758.57
2018-05-15T15:52:00.178Z,94728.73
2018-05-15T15:54:26.543Z,94713.48
2018-05-15T15:56:53.083Z,94692.36
2018-05-15T15:59:19.424Z,94709.19
2018-05-15T16:01:45.790Z,94688.41
2018-05-15T16:04:12.184Z,94692.44
2018-05-15T16:06:38.702Z,94684.21
2018-05-15T16:09:05.080Z,94654.90
2018-05-15T16:11:31.580Z,94651.32
2018-05-15T16:13:57.936Z,94630.77
2018-05-15T16:16:24.343Z,94621.73
2018-05-15T16:18:50.785Z,94616.83
2018-05-15T16:21:17.279Z,94604.29
2018-05-15T16:23:43.643Z,94609.35
2018-05-15T16:26:10.075Z,94612.64
2018-05-15T16:28:36.730Z,94630.45
2018-05-15T16:31:03.120Z,94652.13
2018-05-15T16:33:29.568Z,94639.41
2018-05-15T16:35:55.899Z,94639.20
2018-05-15T16:38:22.381Z,94646.14
2018-05-15T16:40:48.824Z,94651.52
2018-05-15T16:43:15.216Z,94657.21
2018-05-15T16:45:41.545Z,94659.91
2018-05-15T16:48:07.995Z,94653.25
2018-05-15T16:50:34.362Z,94670.98
2018-05-15T16:53:00.725Z,94660.75
2018-05-15T16:55:27.057Z,94649.89
2018-05-15T16:57:53.423Z,94652.03
2018-05-15T17:00:19.850Z,94667.52
2018-05-15T17:02:46.204Z,94672.94
2018-05-15T17:05:12.525Z,94687.35
2018-05-15T17:07:38.880Z,94688.98
2018-05-15T17:10:05.211Z,94668.91
2018-05-15T17:12:31.685Z,94692.38
2018-05-15T17:14:58.103Z,94688.28
2018-05-15T17:17:24.475Z,94696.59
2018-05-15T17:19:50.872Z,94688.51
2018-05-15T17:22:17.244Z,94692.52
2018-05-15T17:24:43.575Z,94690.08
2018-05-15T17:27:09.916Z,94703.58
2018-05-15T17:29:37.013Z,94704.49
2018-05-15T17:32:03.650Z,94704.14
2018-05-15T17:34:30.040Z,94692.81
2018-05-15T17:36:56.366Z,94702.64
2018-05-15T17:39:22.747Z,94682.47
2018-05-15T17:41:49.115Z,94691.92
2018-05-15T17:44:15.445Z,94696.33
2018-05-15T17:46:41.813Z,94700.28
2018-05-15T17:49:08.170Z,94705.77
2018-05-15T17:51:34.556Z,94695.80
2018-05-15T17:54:01.021Z,94698.30
2018-05-15T17:56:27.339Z,94689.27
2018-05-15T17:58:53.720Z,94699.86
2018-05-15T18:01:20.071Z,94689.22
2018-05-15T18:03:46.504Z,94685.72
2018-05-15T18:06:12.862Z,94702.27
2018-05-15T18:08:39.241Z,94699.39
2018-05-15T18:11:05.588Z,94694.44
2018-05-15T18:13:31.970Z,94677.64
2018-05-15T18:15:58.328Z,94655.89
2018-05-15T18:18:24.744Z,94662.44
2018-05-15T18:20:51.104Z,94652.13
2018-05-15T18:23:17.490Z,94649.93
2018-05-15T18:25:43.879Z,94654.77
2018-05-15T18:28:10.268Z,94651.37
2018-05-15T18:30:36.662Z,94664.62
2018-05-15T18:33:03.111Z,94660.95
2018-05-15T18:35:29.337Z,94672.91
2018-05-15T18:37:55.704Z,94671.27
2018-05-15T18:40:22.040Z,94670.91
2018-05-15T18:42:48.595Z,94669.72
2018-05-15T18:45:15.008Z,94666.16
2018-05-15T18:47:41.339Z,94665.84
2018-05-15T18:50:07.839Z,94667.39
2018-05-15T18:52:34.201Z,94658.97
2018-05-15T18:55:00.537Z,94655.11
2018-05-15T18:57:26.864Z,94645.59
2018-05-15T18:59:53.219Z,94632.61
2018-05-15T19:02:19.653Z,94645.47
2018-05-15T19:04:45.990Z,94660.61
2018-05-15T19:07:12.360Z,94670.64
2018-05-15T19:09:38.721Z,94689.85
2018-05-15T19:12:05.105Z,94685.84
2018-05-15T19:14:31.444Z,94703.91
2018-05-15T19:16:57.789Z,94710.73
2018-05-15T19:19:24.168Z,94701.59
2018-05-15T19:21:50.448Z,94695.20
2018-05-15T19:24:16.899Z,94706.34
2018-05-15T19:26:43.321Z,94692.38
2018-05-15T19:29:09.707Z,94653.52
2018-05-15T19:31:36.107Z,94685.44
2018-05-15T19:34:02.449Z,94678.95
2018-05-15T19:36:28.781Z,94681.30
2018-05-15T19:38:55.165Z,94674.35
2018-05-15T19:41:21.532Z,94659.08
2018-05-15T19:43:47.926Z,94664.65
2018-05-15T19:46:14.265Z,94662.28
2018-05-15T19:48:40.611Z,94656.77
2018-05-15T19:51:06.958Z,94658.67
2018-05-15T19:53:33.359Z,94653.17
2018-05-15T19:55:59.684Z,94648.19
2018-05-15T19:58:26.045Z,94643.61
2018-05-15T20:00:52.414Z,94609.54
2018-05-15T20:03:18.842Z,94629.30
2018-05-15T20:05:45.205Z,94642.41
2018-05-15T20:08:11.517Z,94664.31
2018-05-15T20:10:37.888Z,94661.14
2018-05-15T20:13:04.205Z,94650.66
2018-05-15T20:15:30.560Z,94682.31
2018-05-15T20:17:56.878Z,94692.77
2018-05-15T20:20:23.204Z,94693.63
2018-05-15T20:22:49.538Z,94690.92
2018-05-15T20:25:15.873Z,94688.34
2018-05-15T20:27:42.267Z,94687.80
2018-05-15T20:30:08.592Z,94671.20
2018-05-15T20:32:34.914Z,94711.16
2018-05-15T20:35:01.412Z,94709.59
2018-05-15T20:37:27.620Z,94692.02
2018-05-15T20:39:53.985Z,94693.36
2018-05-15T20:42:20.301Z,94686.00
2018-05-15T20:44:46.624Z,94669.04
2018-05-15T20:47:12.980Z,94679.09
2018-05-15T20:49:39.295Z,94698.58
2018-05-15T20:52:05.721Z,94702.56
2018-05-15T20:54:32.056Z,94711.83
2018-05-15T20:56:58.378Z,94694.06
2018-05-15T20:59:24.699Z,94699.72
2018-05-15T21:01:51.126Z,94704.64
2018-05-15T21:04:17.441Z,94730.41
2018-05-15T21:06:43.760Z,94689.73
2018-05-15T21:09:11.112Z,94666.05
2018-05-15T21:11:37.432Z,94648.53
2018-05-15T21:14:03.772Z,94653.77
2018-05-15T21:16:30.103Z,94663.06
2018-05-15T21:18:56.466Z,94663.47
2018-05-15T21:21:22.788Z,94666.93
2018-05-15T21:23:49.114Z,94666.48
2018-05-15T21:26:15.460Z,94681.78
2018-05-15T21:28:41.814Z,94675.08
2018-05-15T21:31:08.176Z,94669.51
2018-05-15T21:33:34.552Z,94658.48
2018-05-15T21:36:00.878Z,94654.16
2018-05-15T21:38:27.199Z,94659.31
2018-05-15T21:40:53.583Z,94649.41
2018-05-15T21:43:19.976Z,94659.72
2018-05-15T21:45:46.344Z,94631.59
2018-05-15T21:48:12.664Z,94657.05
2018-05-15T21:50:38.987Z,94660.60
2018-05-15T21:53:05.351Z,94652.31
2018-05-15T21:55:31.671Z,94646.45
2018-05-15T21:57:57.984Z,94665.37
2018-05-15T22:00:24.352Z,94642.23
2018-05-15T22:02:50.673Z,94653.56
2018-05-15T22:05:16.996Z,94668.16
2018-05-15T22:07:43.309Z,94649.41
2018-05-15T22:10:09.661Z,94663.41
2018-05-15T22:12:36.008Z,94675.66
2018-05-15T22:15:02.348Z,94649.41
2018-05-15T22:17:28.723Z,94687.14
2018-05-15T22:19:55.099Z,94679.31
2018-05-15T22:22:21.484Z,94676.00
2018-05-15T22:24:47.821Z,94656.81
2018-05-15T22:27:14.140Z,94652.45
2018-05-15T22:29:40.463Z,94644.21
2018-05-15T22:32:06.803Z,94642.96
2018-05-15T22:34:33.153Z,94660.66
2018-05-15T22:36:59.527Z,94671.75
2018-05-15T22:39:25.925Z,94663.58
2018-05-15T22:41:52.246Z,94663.75
2018-05-15T22:44:18.599Z,94657.81
2018-05-15T22:46:44.920Z,94658.42
2018-05-15T22:49:11.273Z,94629.83
2018-05-15T22:51:37.646Z,94643.63
2018-05-15T22:54:03.966Z,94609.73
2018-05-15T22:56:30.321Z,94586.13
2018-05-15T22:58:56.642Z,94607.81
2018-05-15T23:01:22.956Z,94600.57
2018-05-15T23:03:49.285Z,94610.56
2018-05-15T23:06:15.608Z,94591.28
2018-05-15T23:08:41.943Z,94596.68
2018-05-15T23:11:08.262Z,94583.35
2018-05-15T23:13:34.611Z,94579.84
2018-05-15T23:16:00.931Z,94562.91
2018-05-15T23:18:27.256Z,94559.75
2018-05-15T23:20:53.573Z,94567.01
2018-05-15T23:23:19.892Z,94563.20
2018-05-15T23:25:46.219Z,94547.07
2018-05-15T23:28:12.560Z,94555.73
2018-05-15T23:30:38.922Z,94551.64
2018-05-15T23:33:05.250Z,94548.83
2018-05-15T23:38:04.085Z,94522.45
2018-05-15T23:40:30.450Z,94543.00
2018-05-15T23:42:56.777Z,94539.19
2018-05-15T23:45:23.104Z,94540.54
2018-05-15T23:47:49.429Z,94529.09
2018-05-15T23:50:15.745Z,94519.05
2018-05-15T23:52:42.088Z,94506.25
2018-05-15T23:55:08.406Z,94524.64
2018-05-15T23:57:34.729Z,94560.02
